Time;durP1;ratioP1;P1;durP2;ratioP2;P2;SDS_P1;SDS_P2;PMS_P1;PMS_P2;Temp;Humidity;BMP_temperature;BMP_pressure;BME280_temperature;BME280_humidity;BME280_pressure;Samples;Min_cycle;Max_cycle;Signal;HPM_P1;HPM_P2
2023/08/05 00:01:00;;;;;;;1.02;0.60;;;24.70;52.20;;;;;;5078153;28;20032;-66
2023/08/05 00:03:26;;;;;;;1.05;0.70;;;24.80;52.20;;;;;;5079746;28;20506;-66
2023/08/05 00:05:52;;;;;;;1.08;0.60;;;24.70;52.20;;;;;;5077456;28;20021;-66
2023/08/05 00:08:17;;;;;;;0.63;0.50;;;24.80;52.20;;;;;;5078627;28;20032;-66
2023/08/05 00:10:44;;;;;;;0.57;0.45;;;24.70;52.20;;;;;;5080175;28;20194;-65
2023/08/05 00:13:10;;;;;;;0.70;0.60;;;24.70;52.20;;;;;;5061640;28;20610;-66
2023/08/05 00:15:36;;;;;;;1.15;0.60;;;24.70;52.20;;;;;;5063068;28;20020;-65
2023/08/05 00:18:02;;;;;;;0.98;0.55;;;24.70;52.20;;;;;;5077728;28;20384;-65
2023/08/05 00:20:27;;;;;;;0.80;0.60;;;24.80;52.20;;;;;;5076534;28;20051;-66
2023/08/05 00:22:53;;;;;;;1.00;0.60;;;24.80;52.20;;;;;;5075555;28;20024;-65
2023/08/05 00:25:18;;;;;;;0.82;0.50;;;24.70;52.20;;;;;;5076784;28;20392;-65
2023/08/05 00:27:44;;;;;;;0.93;0.60;;;24.70;52.10;;;;;;5081073;28;20024;-66
2023/08/05 00:30:11;;;;;;;0.80;0.52;;;24.70;52.10;;;;;;5077868;28;20059;-66
2023/08/05 00:32:36;;;;;;;0.68;0.57;;;24.70;52.10;;;;;;5079217;28;20479;-66
2023/08/05 00:35:06;;;;;;;1.08;0.70;;;24.80;52.20;;;;;;5076929;28;20020;-65
2023/08/05 00:37:32;;;;;;;1.02;0.60;;;24.70;52.10;;;;;;5075592;28;20052;-66
2023/08/05 00:39:59;;;;;;;0.75;0.52;;;24.70;52.10;;;;;;5080215;28;20028;-65
2023/08/05 00:42:26;;;;;;;1.08;0.70;;;24.70;52.10;;;;;;5078939;28;20178;-65
2023/08/05 00:44:52;;;;;;;1.13;0.60;;;24.70;52.10;;;;;;5066482;28;20028;-66
2023/08/05 00:47:18;;;;;;;0.80;0.65;;;24.70;52.10;;;;;;5078060;28;20029;-65
2023/08/05 00:49:45;;;;;;;0.85;0.60;;;24.70;52.10;;;;;;5077214;28;20035;-65
2023/08/05 00:52:13;;;;;;;0.73;0.50;;;24.70;52.10;;;;;;5078141;28;20028;-66
2023/08/05 00:54:39;;;;;;;0.93;0.68;;;24.70;52.10;;;;;;5078750;28;20043;-65
2023/08/05 00:57:06;;;;;;;0.50;0.50;;;24.70;52.10;;;;;;5078271;28;20028;-64
2023/08/05 00:59:31;;;;;;;0.60;0.50;;;24.70;52.10;;;;;;5079035;28;20372;-65
2023/08/05 01:01:57;;;;;;;0.70;0.55;;;24.70;52.10;;;;;;5077975;28;20086;-65
2023/08/05 01:04:23;;;;;;;0.60;0.60;;;24.70;52.10;;;;;;5077103;28;20021;-65
2023/08/05 01:06:50;;;;;;;1.00;0.60;;;24.70;52.10;;;;;;5077092;28;20032;-65
2023/08/05 01:09:15;;;;;;;0.80;0.60;;;24.70;52.10;;;;;;5077921;28;20379;-65
2023/08/05 01:11:41;;;;;;;0.57;0.50;;;24.70;52.10;;;;;;5078267;28;20081;-67
2023/08/05 01:14:07;;;;;;;0.80;0.57;;;24.70;52.10;;;;;;5077542;28;20029;-65
2023/08/05 01:16:32;;;;;;;0.50;0.50;;;24.70;52.10;;;;;;5078583;28;20028;-67
2023/08/05 01:18:59;;;;;;;0.52;0.50;;;24.70;52.10;;;;;;5079085;28;20028;-66
2023/08/05 01:21:51;;;;;;;0.60;0.50;;;24.70;52.60;;;;;;5075805;28;20028;-68
2023/08/05 01:24:25;;;;;;;0.57;0.55;;;24.70;52.10;;;;;;5076590;28;20025;-70
2023/08/05 01:26:52;;;;;;;0.50;0.50;;;24.60;52.00;;;;;;5076663;28;20047;-69
2023/08/05 01:29:18;;;;;;;0.55;0.50;;;24.70;52.00;;;;;;5076997;28;20032;-70
2023/08/05 01:31:45;;;;;;;0.77;0.60;;;24.70;52.00;;;;;;5078040;28;20040;-69
2023/08/05 01:34:11;;;;;;;0.90;0.60;;;24.70;52.00;;;;;;5062553;28;20111;-70
2023/08/05 01:36:37;;;;;;;0.60;0.60;;;24.70;52.00;;;;;;5062587;28;20064;-70
2023/08/05 01:39:03;;;;;;;0.90;0.70;;;24.70;52.00;;;;;;5078032;28;20461;-69
2023/08/05 01:41:28;;;;;;;0.88;0.60;;;24.60;52.00;;;;;;5077389;28;20032;-67
2023/08/05 01:43:54;;;;;;;0.60;0.60;;;24.60;52.00;;;;;;5078336;28;20032;-66
2023/08/05 01:46:19;;;;;;;0.55;0.55;;;24.60;52.00;;;;;;5079083;28;20510;-66
2023/08/05 01:48:45;;;;;;;0.52;0.50;;;24.60;52.00;;;;;;5079065;28;20054;-65
2023/08/05 01:51:11;;;;;;;0.40;0.40;;;24.60;52.00;;;;;;5063819;28;20476;-65
2023/08/05 01:53:36;;;;;;;0.63;0.50;;;24.70;52.00;;;;;;5062793;28;20033;-66
2023/08/05 01:56:02;;;;;;;0.82;0.60;;;24.60;52.00;;;;;;5083636;28;20032;-67
2023/08/05 01:58:29;;;;;;;0.60;0.52;;;24.60;52.00;;;;;;5078519;28;20125;-66
2023/08/05 02:00:54;;;;;;;0.82;0.68;;;24.60;52.00;;;;;;5063209;28;20060;-66
2023/08/05 02:03:20;;;;;;;1.05;0.60;;;24.60;51.90;;;;;;5079417;28;20031;-67
2023/08/05 02:05:46;;;;;;;1.23;0.60;;;24.60;51.90;;;;;;5081992;28;20086;-66
2023/08/05 02:08:12;;;;;;;0.73;0.60;;;24.60;51.90;;;;;;5079636;28;20024;-66
2023/08/05 02:10:37;;;;;;;0.50;0.50;;;24.60;52.30;;;;;;5079435;28;20522;-66
2023/08/05 02:13:04;;;;;;;0.52;0.52;;;24.60;52.00;;;;;;5066805;28;20025;-66
2023/08/05 02:15:30;;;;;;;0.50;0.50;;;24.60;52.00;;;;;;5081542;28;20032;-67
2023/08/05 02:17:55;;;;;;;0.70;0.52;;;24.60;52.00;;;;;;5081017;28;20399;-66
2023/08/05 02:20:21;;;;;;;0.50;0.50;;;24.60;51.90;;;;;;5081487;28;20028;-66
2023/08/05 02:22:46;;;;;;;0.63;0.50;;;24.60;51.90;;;;;;5078631;28;20043;-66
2023/08/05 02:25:12;;;;;;;0.65;0.50;;;24.60;51.90;;;;;;5080616;28;20074;-66
2023/08/05 02:27:38;;;;;;;0.50;0.50;;;24.60;51.90;;;;;;5065542;28;20464;-66
2023/08/05 02:30:04;;;;;;;0.60;0.50;;;24.60;51.90;;;;;;5078826;28;20108;-65
2023/08/05 02:32:29;;;;;;;0.57;0.52;;;24.50;51.90;;;;;;5081378;28;20032;-66
2023/08/05 02:34:55;;;;;;;0.50;0.50;;;24.60;51.90;;;;;;5081739;28;20028;-66
2023/08/05 02:37:21;;;;;;;0.40;0.40;;;24.60;51.90;;;;;;5066030;28;20442;-65
2023/08/05 02:39:46;;;;;;;0.55;0.40;;;24.60;51.90;;;;;;5080930;28;20046;-66
2023/08/05 02:42:12;;;;;;;1.38;0.50;;;24.50;51.80;;;;;;5080400;28;20077;-69
2023/08/05 02:44:37;;;;;;;0.40;0.40;;;24.60;51.90;;;;;;5064306;28;20067;-71
2023/08/05 02:47:03;;;;;;;0.50;0.50;;;24.60;51.90;;;;;;5080383;28;20023;-69
2023/08/05 02:49:29;;;;;;;0.52;0.52;;;24.60;51.90;;;;;;5081557;28;20028;-69
2023/08/05 02:51:54;;;;;;;0.68;0.52;;;24.60;52.50;;;;;;5078757;28;20495;-67
2023/08/05 02:54:20;;;;;;;0.45;0.43;;;24.60;52.00;;;;;;5066753;28;20151;-66
2023/08/05 02:56:46;;;;;;;0.50;0.50;;;24.50;51.90;;;;;;5081736;28;20036;-65
2023/08/05 02:59:12;;;;;;;0.60;0.50;;;24.60;51.90;;;;;;5079498;28;20099;-65
2023/08/05 03:01:37;;;;;;;0.57;0.50;;;24.50;51.90;;;;;;5081916;28;20029;-65
2023/08/05 03:04:03;;;;;;;0.50;0.50;;;24.50;51.90;;;;;;5082367;28;20020;-66
2023/08/05 03:06:29;;;;;;;0.50;0.50;;;24.50;51.90;;;;;;5079840;28;20032;-66
2023/08/05 03:08:54;;;;;;;0.57;0.50;;;24.50;51.90;;;;;;5079524;28;20064;-66
2023/08/05 03:11:21;;;;;;;0.40;0.40;;;24.50;52.40;;;;;;5080123;28;20024;-65
2023/08/05 03:13:47;;;;;;;0.80;0.52;;;24.60;51.90;;;;;;5080378;28;20082;-67
2023/08/05 03:16:13;;;;;;;0.52;0.50;;;24.50;51.90;;;;;;5080447;28;20035;-67
2023/08/05 03:18:39;;;;;;;0.80;0.60;;;24.50;51.90;;;;;;5080889;28;20017;-67
2023/08/05 03:21:05;;;;;;;0.55;0.55;;;24.50;51.90;;;;;;5066635;28;20047;-66
2023/08/05 03:23:31;;;;;;;0.50;0.50;;;24.50;51.90;;;;;;5079850;28;20073;-66
2023/08/05 03:25:56;;;;;;;0.50;0.50;;;24.50;51.90;;;;;;5077736;28;20495;-66
2023/08/05 03:28:22;;;;;;;0.60;0.57;;;24.50;51.90;;;;;;5079741;28;20075;-66
2023/08/05 03:30:48;;;;;;;0.63;0.60;;;24.50;51.90;;;;;;5079442;28;20035;-66
2023/08/05 03:33:13;;;;;;;0.50;0.50;;;24.50;51.90;;;;;;5079453;28;20029;-66
2023/08/05 03:35:43;;;;;;;0.50;0.50;;;24.50;51.90;;;;;;5079763;28;20055;-66
2023/08/05 03:38:08;;;;;;;0.60;0.50;;;24.50;51.90;;;;;;5078769;28;20056;-65
2023/08/05 03:40:37;;;;;;;0.80;0.50;;;24.50;51.90;;;;;;5081997;28;20071;-66
2023/08/05 03:43:03;;;;;;;0.68;0.50;;;24.50;51.90;;;;;;5079774;28;20135;-65
2023/08/05 03:45:29;;;;;;;0.80;0.60;;;24.50;51.90;;;;;;5080285;28;20111;-65
2023/08/05 03:47:58;;;;;;;0.68;0.52;;;24.50;51.90;;;;;;5080500;28;20170;-67
2023/08/05 03:50:24;;;;;;;0.50;0.50;;;24.50;51.90;;;;;;5080161;28;20480;-66
2023/08/05 03:52:49;;;;;;;0.60;0.50;;;24.50;51.90;;;;;;5078263;28;20031;-66
2023/08/05 03:55:16;;;;;;;0.47;0.47;;;24.50;51.90;;;;;;5079350;28;20479;-67
2023/08/05 03:57:42;;;;;;;0.85;0.63;;;24.50;51.90;;;;;;5079966;28;20406;-66
2023/08/05 04:00:11;;;;;;;0.40;0.40;;;24.50;52.40;;;;;;5080179;28;20023;-66
2023/08/05 04:02:37;;;;;;;0.50;0.50;;;24.50;51.90;;;;;;5079847;28;20024;-70
2023/08/05 04:05:08;;;;;;;0.73;0.50;;;24.50;51.90;;;;;;5080817;28;20028;-70
2023/08/05 04:07:34;;;;;;;0.75;0.60;;;24.50;51.90;;;;;;5076206;28;20507;-70
2023/08/05 04:10:00;;;;;;;0.43;0.43;;;24.50;51.90;;;;;;5064019;28;20021;-70
2023/08/05 04:12:26;;;;;;;0.40;0.40;;;24.50;51.90;;;;;;5079537;28;20039;-69
2023/08/05 04:14:53;;;;;;;0.45;0.45;;;24.50;51.90;;;;;;5078888;28;20028;-69
2023/08/05 04:17:20;;;;;;;0.40;0.40;;;24.50;52.40;;;;;;5077887;28;20547;-69
2023/08/05 04:19:47;;;;;;;0.70;0.60;;;24.50;51.90;;;;;;5068103;28;20037;-69
2023/08/05 04:22:13;;;;;;;0.50;0.40;;;24.50;51.90;;;;;;5077011;28;20020;-70
2023/08/05 04:24:41;;;;;;;0.40;0.40;;;24.50;51.90;;;;;;5077468;28;20103;-70
2023/08/05 04:27:08;;;;;;;0.80;0.55;;;24.50;51.90;;;;;;5079184;28;20019;-69
2023/08/05 04:29:33;;;;;;;0.70;0.70;;;24.40;51.80;;;;;;5080527;28;20370;-70
2023/08/05 04:31:59;;;;;;;0.40;0.40;;;24.50;51.90;;;;;;5078641;28;20059;-70
2023/08/05 04:34:25;;;;;;;0.55;0.50;;;24.50;51.90;;;;;;5077506;28;20036;-69
2023/08/05 04:36:52;;;;;;;0.47;0.47;;;24.50;51.90;;;;;;5077808;28;20077;-69
2023/08/05 04:39:21;;;;;;;0.68;0.50;;;24.40;51.80;;;;;;5075947;28;20459;-69
2023/08/05 04:41:47;;;;;;;0.68;0.57;;;24.40;51.80;;;;;;5060605;28;20977;-69
2023/08/05 04:44:13;;;;;;;0.52;0.50;;;24.40;51.80;;;;;;5078788;28;20100;-69
2023/08/05 04:46:38;;;;;;;0.50;0.50;;;24.50;51.90;;;;;;5080113;28;20040;-69
2023/08/05 04:49:07;;;;;;;0.70;0.47;;;24.50;51.90;;;;;;5077761;28;20020;-70
2023/08/05 04:51:34;;;;;;;0.40;0.40;;;24.50;51.90;;;;;;5075875;28;20143;-70
2023/08/05 04:53:59;;;;;;;0.45;0.40;;;24.40;51.90;;;;;;5076564;28;20040;-69
2023/08/05 04:56:26;;;;;;;0.50;0.50;;;24.40;51.90;;;;;;5077969;28;20684;-69
2023/08/05 04:58:51;;;;;;;0.63;0.50;;;24.50;51.90;;;;;;5078415;28;20101;-69
2023/08/05 05:01:17;;;;;;;0.38;0.38;;;24.40;51.80;;;;;;5076618;28;20487;-66
2023/08/05 05:03:46;;;;;;;0.50;0.50;;;24.40;51.80;;;;;;5078568;28;20039;-65
2023/08/05 05:06:12;;;;;;;0.47;0.47;;;24.40;51.90;;;;;;5077848;28;20442;-66
2023/08/05 05:08:37;;;;;;;0.50;0.50;;;24.40;51.90;;;;;;5075521;28;20028;-65
2023/08/05 05:11:03;;;;;;;0.65;0.52;;;24.40;51.80;;;;;;5061892;28;20602;-66
2023/08/05 05:13:29;;;;;;;0.52;0.50;;;24.40;51.80;;;;;;5077405;28;20029;-66
2023/08/05 05:15:54;;;;;;;0.50;0.50;;;24.40;51.80;;;;;;5076831;28;20040;-65
2023/08/05 05:18:20;;;;;;;0.55;0.55;;;24.40;51.80;;;;;;5076279;28;20028;-65
2023/08/05 05:20:50;;;;;;;0.50;0.50;;;24.40;51.80;;;;;;5077300;28;20029;-65
2023/08/05 05:23:15;;;;;;;0.77;0.60;;;24.40;51.90;;;;;;5075945;28;20127;-66
2023/08/05 05:25:41;;;;;;;0.40;0.40;;;24.40;51.90;;;;;;5078807;28;20119;-67
2023/08/05 05:28:07;;;;;;;0.50;0.50;;;24.40;51.90;;;;;;5082752;28;20082;-65
2023/08/05 05:30:35;;;;;;;0.35;0.35;;;24.40;51.90;;;;;;5082338;28;20714;-66
2023/08/05 05:33:00;;;;;;;0.50;0.50;;;24.40;51.90;;;;;;5082518;28;20464;-65
2023/08/05 05:35:28;;;;;;;0.40;0.40;;;24.40;51.90;;;;;;5085446;28;20107;-66
2023/08/05 05:37:53;;;;;;;0.40;0.40;;;24.40;51.90;;;;;;5079885;28;20019;-66
2023/08/05 05:40:19;;;;;;;0.40;0.40;;;24.40;51.90;;;;;;5081744;28;20024;-66
2023/08/05 05:42:44;;;;;;;0.60;0.52;;;24.40;51.90;;;;;;5080692;28;20024;-66
2023/08/05 05:45:10;;;;;;;0.60;0.50;;;24.40;51.90;;;;;;5084361;28;20051;-65
2023/08/05 05:47:36;;;;;;;0.40;0.40;;;24.40;51.80;;;;;;5080962;28;20484;-66
2023/08/05 05:50:03;;;;;;;0.43;0.43;;;24.30;51.80;;;;;;5081357;28;20592;-66
2023/08/05 05:52:28;;;;;;;0.35;0.35;;;24.40;51.90;;;;;;5079931;28;20027;-66
2023/08/05 05:54:54;;;;;;;0.50;0.50;;;24.40;51.90;;;;;;5079547;28;20044;-66
2023/08/05 05:57:22;;;;;;;0.57;0.57;;;24.40;51.80;;;;;;5080165;28;20025;-65
2023/08/05 05:59:48;;;;;;;0.77;0.60;;;24.40;51.90;;;;;;5082262;28;20526;-66
2023/08/05 06:02:14;;;;;;;0.60;0.60;;;24.40;51.90;;;;;;5064808;28;20460;-69
2023/08/05 06:04:42;;;;;;;0.43;0.43;;;24.30;51.80;;;;;;5065895;28;20094;-69
2023/08/05 06:07:08;;;;;;;0.60;0.57;;;24.40;51.90;;;;;;5063224;28;20021;-69
2023/08/05 06:09:33;;;;;;;0.52;0.50;;;24.30;51.80;;;;;;5080859;28;20553;-69
2023/08/05 06:11:59;;;;;;;0.60;0.50;;;24.30;51.80;;;;;;5083463;28;20393;-64
2023/08/05 06:14:25;;;;;;;0.63;0.57;;;24.30;51.80;;;;;;5082028;28;20020;-63
2023/08/05 06:16:51;;;;;;;0.40;0.40;;;24.40;51.90;;;;;;5082153;28;20021;-63
2023/08/05 06:19:16;;;;;;;0.57;0.57;;;24.30;51.80;;;;;;5079674;28;20098;-64
2023/08/05 06:21:42;;;;;;;0.85;0.50;;;24.30;51.80;;;;;;5081960;28;20024;-69
2023/08/05 06:24:08;;;;;;;0.60;0.60;;;24.30;51.80;;;;;;5079269;28;20025;-69
2023/08/05 06:26:33;;;;;;;0.57;0.57;;;24.30;51.80;;;;;;5082151;28;20036;-69
2023/08/05 06:28:59;;;;;;;0.50;0.50;;;24.30;51.80;;;;;;5080839;28;20024;-68
2023/08/05 06:31:24;;;;;;;0.60;0.60;;;24.30;51.80;;;;;;5081725;28;20395;-69
2023/08/05 06:33:50;;;;;;;0.60;0.47;;;24.30;51.80;;;;;;5080296;28;20032;-69
2023/08/05 06:36:16;;;;;;;0.60;0.60;;;24.30;52.30;;;;;;5080598;28;20418;-69
2023/08/05 06:38:41;;;;;;;0.60;0.60;;;24.30;51.80;;;;;;5078028;28;20082;-69
2023/08/05 06:41:07;;;;;;;0.82;0.68;;;24.30;51.80;;;;;;5064980;28;20029;-69
2023/08/05 06:43:33;;;;;;;0.60;0.60;;;24.30;51.80;;;;;;5079357;28;20028;-69
2023/08/05 06:45:59;;;;;;;0.50;0.50;;;24.30;51.80;;;;;;5062537;28;20561;-68
2023/08/05 06:48:24;;;;;;;0.55;0.55;;;24.30;51.80;;;;;;5081499;28;20534;-68
2023/08/05 06:50:50;;;;;;;0.75;0.65;;;24.30;51.80;;;;;;5080451;28;20098;-69
2023/08/05 06:53:15;;;;;;;0.60;0.60;;;24.30;51.80;;;;;;5064742;28;20035;-69
2023/08/05 06:55:41;;;;;;;0.57;0.57;;;24.30;51.80;;;;;;5061298;28;20068;-69
2023/08/05 06:58:07;;;;;;;0.75;0.60;;;24.30;51.80;;;;;;5080452;28;20110;-70
2023/08/05 07:00:32;;;;;;;0.85;0.60;;;24.30;51.80;;;;;;5081035;28;20017;-69
2023/08/05 07:02:58;;;;;;;1.52;0.80;;;24.30;51.80;;;;;;5080264;28;20035;-69
2023/08/05 07:05:24;;;;;;;0.60;0.60;;;24.30;51.80;;;;;;5078454;28;20023;-68
2023/08/05 07:07:49;;;;;;;0.90;0.70;;;24.30;51.80;;;;;;5080594;28;20491;-69
2023/08/05 07:10:16;;;;;;;0.88;0.70;;;24.30;51.80;;;;;;5078865;28;20447;-69
2023/08/05 07:12:41;;;;;;;0.80;0.60;;;24.30;51.80;;;;;;5079619;28;20032;-65
2023/08/05 07:15:07;;;;;;;0.75;0.70;;;24.30;51.80;;;;;;5077455;28;20042;-65
2023/08/05 07:17:33;;;;;;;0.68;0.60;;;24.30;51.80;;;;;;5065817;28;20028;-66
2023/08/05 07:19:59;;;;;;;0.60;0.60;;;24.30;51.80;;;;;;5080795;28;20036;-66
2023/08/05 07:22:25;;;;;;;0.55;0.50;;;24.30;51.80;;;;;;5079724;28;20070;-70
2023/08/05 07:24:54;;;;;;;0.55;0.55;;;24.30;51.90;;;;;;5066191;28;20392;-70
2023/08/05 07:27:20;;;;;;;0.60;0.60;;;24.30;51.80;;;;;;5079336;28;20479;-69
2023/08/05 07:29:46;;;;;;;1.27;0.60;;;24.30;51.80;;;;;;5062438;28;20102;-69
2023/08/05 07:32:11;;;;;;;0.70;0.60;;;24.30;51.80;;;;;;5080265;28;20107;-64
2023/08/05 07:34:37;;;;;;;0.73;0.60;;;24.30;51.80;;;;;;5081051;28;20112;-64
2023/08/05 07:37:03;;;;;;;1.15;0.70;;;24.30;51.80;;;;;;5063675;28;20080;-64
2023/08/05 07:39:33;;;;;;;0.70;0.60;;;24.30;51.90;;;;;;5080706;28;20051;-63
2023/08/05 07:42:01;;;;;;;0.88;0.70;;;24.30;51.80;;;;;;5064996;28;20036;-65
2023/08/05 07:44:26;;;;;;;0.50;0.50;;;24.30;51.90;;;;;;5082941;28;20036;-63
2023/08/05 07:46:53;;;;;;;0.60;0.60;;;24.30;51.80;;;;;;5079227;28;20024;-63
2023/08/05 07:49:19;;;;;;;0.70;0.65;;;24.30;51.80;;;;;;5079020;28;20103;-64
2023/08/05 07:51:47;;;;;;;0.80;0.60;;;24.30;51.80;;;;;;5079645;28;20166;-65
2023/08/05 07:54:13;;;;;;;0.70;0.70;;;24.30;51.80;;;;;;5077431;28;20510;-64
2023/08/05 07:56:41;;;;;;;0.63;0.63;;;24.30;51.80;;;;;;5077186;28;20066;-65
2023/08/05 07:59:07;;;;;;;0.80;0.80;;;24.30;51.80;;;;;;5078861;28;20028;-64
2023/08/05 08:01:33;;;;;;;0.77;0.60;;;24.30;51.80;;;;;;5077645;28;20037;-64
2023/08/05 08:04:02;;;;;;;0.70;0.60;;;24.30;51.80;;;;;;5079707;28;20225;-64
2023/08/05 08:06:28;;;;;;;0.60;0.60;;;24.30;51.80;;;;;;5079469;28;20021;-65
2023/08/05 08:08:54;;;;;;;0.60;0.57;;;24.30;51.80;;;;;;5077987;28;20472;-64
2023/08/05 08:11:20;;;;;;;1.08;0.70;;;24.30;51.70;;;;;;5078421;28;20029;-63
2023/08/05 08:13:45;;;;;;;0.63;0.52;;;24.30;51.70;;;;;;5080062;28;20039;-65
2023/08/05 08:16:13;;;;;;;0.50;0.50;;;24.30;51.70;;;;;;5079633;28;20024;-64
2023/08/05 08:18:39;;;;;;;0.68;0.60;;;24.30;51.70;;;;;;5079089;28;20482;-64
2023/08/05 08:21:08;;;;;;;0.60;0.60;;;24.30;51.70;;;;;;5078496;28;20242;-64
2023/08/05 08:23:33;;;;;;;1.10;0.70;;;24.30;51.70;;;;;;5062472;28;20021;-66
2023/08/05 08:25:59;;;;;;;0.60;0.60;;;24.30;51.70;;;;;;5078028;28;20082;-66
2023/08/05 08:28:26;;;;;;;0.70;0.70;;;24.30;51.60;;;;;;5063785;28;20119;-66
2023/08/05 08:30:56;;;;;;;1.25;0.80;;;24.30;51.50;;;;;;5078219;28;20016;-65
2023/08/05 08:33:22;;;;;;;1.38;0.90;;;24.30;51.40;;;;;;5078819;28;20055;-67
2023/08/05 08:35:51;;;;;;;1.10;0.80;;;24.30;51.40;;;;;;5078071;28;20073;-66
2023/08/05 08:38:17;;;;;;;;;;;24.30;51.30;;;;;;5078910;28;20107;-66
2023/08/05 08:40:50;;;;;;;0.80;0.80;;;24.30;51.30;;;;;;5078251;28;20057;-65
2023/08/05 08:43:22;;;;;;;1.80;1.08;;;24.30;51.30;;;;;;5077383;28;20093;-69
2023/08/05 08:45:51;;;;;;;1.30;0.90;;;24.30;51.30;;;;;;5077413;28;20145;-69
2023/08/05 08:48:18;;;;;;;1.38;0.95;;;24.30;51.30;;;;;;5078470;28;20025;-69
2023/08/05 08:50:44;;;;;;;1.80;1.10;;;24.30;51.30;;;;;;5061253;28;20029;-69
2023/08/05 08:53:12;;;;;;;1.70;1.08;;;24.30;51.30;;;;;;5078495;28;20028;-69
2023/08/05 08:55:38;;;;;;;1.75;1.20;;;24.30;51.30;;;;;;5076676;28;20396;-69
2023/08/05 08:58:04;;;;;;;1.67;1.13;;;24.30;51.30;;;;;;5078236;28;20021;-69
2023/08/05 09:00:32;;;;;;;2.30;1.20;;;24.30;51.40;;;;;;5078881;28;20021;-70
2023/08/05 09:03:00;;;;;;;1.20;1.00;;;24.30;51.40;;;;;;5077947;28;20667;-70
2023/08/05 09:05:30;;;;;;;1.95;1.20;;;24.30;51.40;;;;;;5078676;28;20028;-69
2023/08/05 09:07:56;;;;;;;1.85;1.20;;;24.30;51.40;;;;;;5080186;28;20025;-70
2023/08/05 09:10:23;;;;;;;1.42;1.00;;;24.30;51.40;;;;;;5075735;28;20106;-70
2023/08/05 09:12:49;;;;;;;1.60;1.02;;;24.30;51.50;;;;;;5077572;28;20494;-69
2023/08/05 09:15:15;;;;;;;3.13;1.15;;;24.30;51.50;;;;;;5081224;28;20050;-70
2023/08/05 09:17:40;;;;;;;3.17;1.50;;;24.30;51.50;;;;;;5076942;28;20123;-70
2023/08/05 09:20:16;;;;;;;2.72;1.77;;;24.30;51.50;;;;;;5078533;28;20028;-69
2023/08/05 09:22:53;;;;;;;2.50;1.65;;;24.40;51.50;;;;;;5078053;28;20527;-69
2023/08/05 09:25:19;;;;;;;3.95;1.90;;;24.40;51.40;;;;;;5066613;28;20029;-70
2023/08/05 09:27:46;;;;;;;2.47;1.67;;;24.40;51.20;;;;;;5077797;28;20067;-70
2023/08/05 09:30:16;;;;;;;3.13;1.70;;;24.50;51.20;;;;;;5078328;28;20032;-69
2023/08/05 09:32:46;;;;;;;4.75;1.60;;;24.50;51.20;;;;;;5078119;28;20020;-66
2023/08/05 09:35:13;;;;;;;3.03;1.67;;;24.50;51.80;;;;;;5062705;28;20036;-65
2023/08/05 09:37:40;;;;;;;2.20;1.60;;;24.50;51.20;;;;;;5080110;28;20480;-66
2023/08/05 09:40:32;;;;;;;2.30;1.55;;;24.50;51.20;;;;;;5059116;28;20482;-65
2023/08/05 09:42:59;;;;;;;2.00;1.40;;;24.50;51.30;;;;;;5071203;28;20047;-65
2023/08/05 09:45:27;;;;;;;2.08;1.40;;;24.50;51.30;;;;;;5088416;28;20028;-65
2023/08/05 09:48:06;;;;;;;1.98;1.20;;;24.50;51.20;;;;;;5088629;28;20084;-65
2023/08/05 09:50:37;;;;;;;2.10;1.40;;;24.50;51.20;;;;;;5087533;28;20020;-65
2023/08/05 09:53:07;;;;;;;1.92;1.40;;;24.60;51.30;;;;;;5084697;28;20104;-64
2023/08/05 09:55:33;;;;;;;2.20;1.50;;;24.60;51.30;;;;;;5084771;28;20032;-65
2023/08/05 09:58:00;;;;;;;2.30;1.67;;;24.60;51.30;;;;;;5089893;28;20035;-65
2023/08/05 10:00:28;;;;;;;2.15;1.38;;;24.60;51.30;;;;;;5089627;28;20020;-66
2023/08/05 10:02:54;;;;;;;2.22;1.40;;;24.60;51.30;;;;;;5082826;28;20024;-66
2023/08/05 10:05:24;;;;;;;2.22;1.40;;;24.70;51.40;;;;;;5083029;28;20020;-65
2023/08/05 10:07:53;;;;;;;2.83;1.50;;;24.60;51.30;;;;;;5084963;28;20483;-67
2023/08/05 10:10:22;;;;;;;1.83;1.30;;;24.70;51.90;;;;;;5070773;28;20031;-66
2023/08/05 10:13:01;;;;;;;1.98;1.40;;;24.70;51.40;;;;;;5088746;28;20060;-66
2023/08/05 10:15:30;;;;;;;2.30;1.40;;;24.70;51.40;;;;;;5091985;28;20027;-66
2023/08/05 10:17:57;;;;;;;1.80;1.40;;;24.70;51.40;;;;;;5091539;28;20657;-66
2023/08/05 10:20:22;;;;;;;2.42;1.45;;;24.70;51.40;;;;;;5092062;28;20025;-66
2023/08/05 10:23:08;;;;;;;1.92;1.40;;;24.80;51.40;;;;;;5086146;28;20358;-66
2023/08/05 10:25:42;;;;;;;2.13;1.35;;;24.80;51.40;;;;;;5091166;28;20017;-66
2023/08/05 10:28:09;;;;;;;2.03;1.50;;;24.80;51.90;;;;;;5088496;28;20088;-65
2023/08/05 10:30:42;;;;;;;1.90;1.30;;;24.80;51.30;;;;;;5091173;28;20115;-65
2023/08/05 10:33:08;;;;;;;1.40;1.10;;;24.80;51.30;;;;;;5092437;28;20043;-65
2023/08/05 10:35:42;;;;;;;2.45;1.65;;;24.90;51.30;;;;;;5091755;28;20099;-65
2023/08/05 10:38:19;;;;;;;1.95;1.30;;;24.90;51.30;;;;;;5084863;28;20028;-66
2023/08/05 10:40:56;;;;;;;1.88;1.30;;;24.90;51.40;;;;;;5087409;28;20622;-66
2023/08/05 10:43:31;;;;;;;2.25;1.38;;;24.90;51.30;;;;;;5083261;28;20020;-67
2023/08/05 10:46:00;;;;;;;1.55;1.05;;;24.90;51.40;;;;;;5086289;28;20508;-69
2023/08/05 10:48:35;;;;;;;1.50;1.10;;;25.00;51.50;;;;;;5080357;28;20032;-70
2023/08/05 10:51:08;;;;;;;1.92;1.20;;;25.00;51.40;;;;;;5080025;28;20118;-69
2023/08/05 10:53:34;;;;;;;1.63;1.20;;;25.00;51.50;;;;;;5082334;28;20430;-69
2023/08/05 10:56:01;;;;;;;2.10;1.50;;;25.00;51.40;;;;;;5079873;28;20095;-69
2023/08/05 10:58:34;;;;;;;1.70;1.20;;;25.00;51.30;;;;;;5081088;28;20100;-70
2023/08/05 11:01:04;;;;;;;1.75;1.20;;;25.00;51.90;;;;;;5079876;28;20488;-69
2023/08/05 11:03:43;;;;;;;1.65;1.27;;;25.10;51.40;;;;;;5081372;28;20024;-69
2023/08/05 11:06:10;;;;;;;1.88;1.50;;;25.10;51.30;;;;;;5081231;28;20024;-70
2023/08/05 11:08:37;;;;;;;2.17;1.50;;;25.10;51.30;;;;;;5062668;28;20551;-70
2023/08/05 11:11:05;;;;;;;2.30;1.25;;;25.10;51.30;;;;;;5081382;28;20103;-69
2023/08/05 11:13:35;;;;;;;1.80;1.23;;;25.10;51.20;;;;;;5079133;28;20028;-69
2023/08/05 11:16:02;;;;;;;2.05;1.30;;;25.10;51.20;;;;;;5079378;28;20059;-70
2023/08/05 11:18:29;;;;;;;1.38;1.10;;;25.20;51.20;;;;;;5081500;28;20024;-70
2023/08/05 11:20:55;;;;;;;1.88;1.10;;;25.20;51.20;;;;;;5081101;28;20056;-70
2023/08/05 11:23:23;;;;;;;2.15;1.20;;;25.20;51.20;;;;;;5078506;28;20032;-70
2023/08/05 11:25:49;;;;;;;1.38;1.10;;;25.20;51.20;;;;;;5078737;28;20480;-69
2023/08/05 11:28:15;;;;;;;1.55;1.20;;;25.20;51.20;;;;;;5079801;28;20028;-69
2023/08/05 11:30:41;;;;;;;1.88;1.10;;;25.20;51.20;;;;;;5079409;28;20111;-69
2023/08/05 11:33:06;;;;;;;1.67;1.20;;;25.20;51.20;;;;;;5082726;28;20115;-70
2023/08/05 11:35:32;;;;;;;1.33;0.98;;;25.20;51.20;;;;;;5079190;28;20471;-70
2023/08/05 11:37:58;;;;;;;1.60;1.20;;;25.20;51.10;;;;;;5080736;28;20531;-68
2023/08/05 11:40:24;;;;;;;1.70;1.20;;;25.20;51.10;;;;;;5078607;28;20024;-69
2023/08/05 11:42:52;;;;;;;1.73;1.20;;;25.20;51.10;;;;;;5076586;28;20036;-68
2023/08/05 11:45:18;;;;;;;1.77;1.30;;;25.30;51.20;;;;;;5078400;28;20028;-68
2023/08/05 11:47:45;;;;;;;1.60;1.20;;;25.30;51.10;;;;;;5080079;28;20035;-68
2023/08/05 11:50:12;;;;;;;1.60;1.30;;;25.20;51.10;;;;;;5078146;28;20032;-68
2023/08/05 11:52:39;;;;;;;1.75;1.20;;;25.20;51.10;;;;;;5079308;28;20051;-69
2023/08/05 11:55:07;;;;;;;1.58;1.08;;;25.30;51.10;;;;;;5078753;28;20428;-69
2023/08/05 11:57:33;;;;;;;1.40;1.00;;;25.20;51.10;;;;;;5079755;28;20028;-70
2023/08/05 12:00:09;;;;;;;1.10;0.90;;;25.20;51.10;;;;;;5080451;28;20364;-68
2023/08/05 12:02:35;;;;;;;2.15;1.27;;;25.30;51.20;;;;;;5079829;28;20024;-67
2023/08/05 12:05:02;;;;;;;1.17;0.98;;;25.20;51.10;;;;;;5078509;28;20031;-64
2023/08/05 12:07:28;;;;;;;1.80;1.17;;;25.30;51.10;;;;;;5079832;28;20016;-65
2023/08/05 12:10:12;;;;;;;1.45;1.10;;;25.20;51.10;;;;;;5077944;28;20497;-65
2023/08/05 12:12:41;;;;;;;1.17;1.00;;;25.30;51.20;;;;;;5079771;28;20089;-65
2023/08/05 12:15:17;;;;;;;1.83;1.17;;;25.30;51.20;;;;;;5079117;28;20070;-64
2023/08/05 12:17:48;;;;;;;1.13;1.00;;;25.30;51.20;;;;;;5079549;28;20034;-64
2023/08/05 12:20:19;;;;;;;1.67;1.10;;;25.30;51.30;;;;;;5080150;28;20035;-63
2023/08/05 12:22:47;;;;;;;1.20;0.90;;;25.30;51.30;;;;;;5079667;28;20123;-65
2023/08/05 12:25:13;;;;;;;1.60;0.90;;;25.30;51.30;;;;;;5079175;28;20031;-66
2023/08/05 12:27:39;;;;;;;1.00;0.90;;;25.30;51.80;;;;;;5061964;28;20134;-66
2023/08/05 12:30:09;;;;;;;1.35;1.00;;;25.30;51.40;;;;;;5061774;28;20028;-66
2023/08/05 12:32:34;;;;;;;1.25;0.90;;;25.30;51.50;;;;;;5080415;28;20028;-66
2023/08/05 12:35:04;;;;;;;1.23;0.98;;;25.30;51.50;;;;;;5077881;28;20035;-65
2023/08/05 12:37:30;;;;;;;;;;;25.40;51.60;;;;;;5079387;28;20517;-67
2023/08/05 12:39:55;;;;;;;1.33;0.80;;;25.40;51.60;;;;;;5079024;28;19947;-66
2023/08/05 12:42:21;;;;;;;1.05;0.88;;;25.30;51.60;;;;;;5077405;28;20106;-65
2023/08/05 12:44:47;;;;;;;1.70;1.10;;;25.30;51.60;;;;;;5080617;28;20028;-65
2023/08/05 12:47:12;;;;;;;1.17;0.85;;;25.40;51.70;;;;;;5079895;28;20020;-65